Time;durP1;ratioP1;P1;durP2;ratioP2;P2;SDS_P1;SDS_P2;PMS_P1;PMS_P2;Temp;Humidity;BMP_temperature;BMP_pressure;BME280_temperature;BME280_humidity;BME280_pressure;Samples;Min_cycle;Max_cycle;Signal;HPM_P1;HPM_P2
2021/05/07 00:00:39;;;;;;;4.78;2.35;;;;;;;12.92;45.89;98966.09;4194740;34;34700;-94
2021/05/07 00:03:12;;;;;;;4.03;2.10;;;;;;;13.02;45.48;98961.00;4194823;34;34356;-85
2021/05/07 00:05:51;;;;;;;3.90;2.30;;;;;;;13.17;45.30;98964.22;4218683;34;34738;-86
2021/05/07 00:08:28;;;;;;;8.18;2.45;;;;;;;13.16;46.23;98962.53;4218195;34;33377;-86
2021/05/07 00:11:04;;;;;;;3.00;1.73;;;;;;;13.28;45.92;98954.50;4206673;33;33524;-96
2021/05/07 00:13:37;;;;;;;6.57;2.03;;;;;;;13.27;46.36;98952.84;4205938;34;34508;-87
2021/05/07 00:16:11;;;;;;;3.67;1.80;;;;;;;13.26;45.78;98943.03;4218220;34;33682;-96
2021/05/07 00:18:44;;;;;;;5.40;2.00;;;;;;;13.09;47.18;98948.19;4194789;34;33511;-87
2021/05/07 00:21:17;;;;;;;4.50;2.05;;;;;;;13.29;47.09;98944.47;4219010;34;33748;-90
2021/05/07 00:23:52;;;;;;;3.37;1.75;;;;;;;13.27;48.22;98941.16;4194857;34;33882;-96
2021/05/07 00:26:24;;;;;;;5.55;2.12;;;;;;;13.14;49.57;98942.94;4193804;34;34277;-86
2021/05/07 00:28:57;;;;;;;5.65;2.17;;;;;;;13.38;49.24;98946.72;4219063;34;33221;-86
2021/05/07 00:31:34;;;;;;;4.62;2.25;;;;;;;13.11;50.17;98943.38;4206656;34;33399;-96
2021/05/07 00:34:28;;;;;;;2.77;1.90;;;;;;;13.22;50.40;98942.66;4110463;34;36814;-96
2021/05/07 00:37:01;;;;;;;6.35;2.10;;;;;;;12.48;52.26;98928.88;4208372;34;34498;-87
2021/05/07 00:39:33;;;;;;;6.15;2.30;;;;;;;12.76;51.69;98924.91;4218413;34;34114;-87
2021/05/07 00:42:09;;;;;;;4.45;1.75;;;;;;;12.79;52.50;98934.50;4207052;34;33824;-87
2021/05/07 00:44:42;;;;;;;1.87;1.45;;;;;;;12.68;53.28;98933.34;4204817;34;35191;-96
2021/05/07 00:47:17;;;;;;;3.30;1.92;;;;;;;12.42;53.52;98929.75;4206420;34;34011;-94
2021/05/07 00:49:50;;;;;;;2.87;1.80;;;;;;;12.03;54.66;98920.84;4206075;34;34151;-95
2021/05/07 00:52:23;;;;;;;5.15;2.08;;;;;;;12.11;54.52;98917.88;4194641;34;32651;-87
2021/05/07 00:54:56;;;;;;;4.53;1.73;;;;;;;12.15;54.47;98918.28;4206957;34;34370;-95
2021/05/07 00:57:30;;;;;;;4.07;2.08;;;;;;;12.21;54.48;98919.28;4195155;34;34584;-94
2021/05/07 01:00:06;;;;;;;4.43;2.40;;;;;;;11.94;55.49;98922.16;4205618;34;33608;-95
2021/05/07 01:02:39;;;;;;;3.22;1.55;;;;;;;12.06;55.15;98911.47;4205398;34;35097;-86
2021/05/07 01:05:13;;;;;;;3.15;1.95;;;;;;;12.08;55.39;98918.31;4218516;34;33720;-94
2021/05/07 01:07:46;;;;;;;4.25;1.95;;;;;;;11.65;56.67;98922.44;4205587;34;33835;-95
2021/05/07 01:10:20;;;;;;;6.00;2.17;;;;;;;11.38;57.44;98919.00;4206494;34;33334;-95
2021/05/07 01:12:55;;;;;;;3.35;1.87;;;;;;;11.16;58.23;98920.31;4205249;34;34449;-87
2021/05/07 01:15:28;;;;;;;3.40;1.70;;;;;;;11.09;58.21;98910.34;4218181;34;34760;-96
2021/05/07 01:18:01;;;;;;;5.87;2.37;;;;;;;11.10;58.41;98917.41;4194502;34;35523;-88
2021/05/07 01:20:35;;;;;;;5.70;1.80;;;;;;;11.08;58.51;98911.37;4194989;34;33939;-87
2021/05/07 01:23:09;;;;;;;6.65;2.72;;;;;;;11.20;58.06;98914.28;4218727;34;34555;-87
2021/05/07 01:25:43;;;;;;;5.78;2.60;;;;;;;11.11;58.45;98913.66;4217879;34;33702;-87
2021/05/07 01:28:16;;;;;;;7.50;2.30;;;;;;;11.09;58.28;98915.75;4216933;34;33605;-86
2021/05/07 01:30:50;;;;;;;6.37;2.30;;;;;;;10.68;59.29;98919.53;4207416;34;33154;-86
2021/05/07 01:33:23;;;;;;;7.65;2.45;;;;;;;10.69;59.25;98920.34;4216795;34;34633;-96
2021/05/07 01:35:57;;;;;;;4.57;2.08;;;;;;;10.62;59.19;98920.34;4204283;34;34431;-95
2021/05/07 01:38:30;;;;;;;14.55;4.25;;;;;;;10.46;59.59;98909.97;4216301;34;34044;-95
2021/05/07 01:41:04;;;;;;;8.32;3.53;;;;;;;9.94;61.05;98910.47;4216687;34;33749;-86
2021/05/07 01:43:37;;;;;;;7.90;3.40;;;;;;;10.02;60.75;98914.84;4218338;34;33476;-86
2021/05/07 01:46:10;;;;;;;7.45;3.10;;;;;;;9.69;62.25;98913.69;4206309;34;34707;-87
2021/05/07 01:48:42;;;;;;;8.05;3.10;;;;;;;10.06;61.11;98916.94;4216943;34;33949;-94
2021/05/07 01:51:17;;;;;;;13.02;3.60;;;;;;;10.17;61.11;98912.78;4205147;34;34174;-95
2021/05/07 01:53:50;;;;;;;5.80;2.95;;;;;;;10.27;60.63;98904.31;4216591;34;34055;-94
2021/05/07 01:56:23;;;;;;;8.82;3.17;;;;;;;10.14;61.25;98905.09;4183421;34;34749;-86
2021/05/07 01:58:56;;;;;;;7.40;2.97;;;;;;;10.12;61.12;98903.63;4218978;34;34557;-95
2021/05/07 02:01:29;;;;;;;8.10;2.45;;;;;;;10.10;61.37;98908.44;4194201;34;33716;-94
2021/05/07 02:04:03;;;;;;;5.75;2.40;;;;;;;10.29;60.85;98910.31;4205569;34;34702;-94
2021/05/07 02:06:37;;;;;;;6.15;2.87;;;;;;;10.25;60.53;98912.63;4183544;34;34308;-86
2021/05/07 02:09:10;;;;;;;7.68;2.78;;;;;;;10.03;61.26;98916.50;4217992;34;33461;-86
2021/05/07 02:11:42;;;;;;;6.90;2.67;;;;;;;10.30;60.62;98897.66;4205068;34;34882;-94
2021/05/07 02:14:16;;;;;;;5.30;2.95;;;;;;;10.32;60.63;98909.91;4205373;34;34412;-93
2021/05/07 02:16:53;;;;;;;6.05;2.70;;;;;;;10.29;60.70;98910.31;4205573;34;35194;-93
2021/05/07 02:19:27;;;;;;;6.28;2.62;;;;;;;10.30;60.63;98913.84;4206170;34;34023;-86
2021/05/07 02:21:59;;;;;;;7.15;2.95;;;;;;;9.85;62.01;98903.56;4218693;34;32903;-94
2021/05/07 02:24:32;;;;;;;6.75;3.05;;;;;;;10.14;61.29;98898.88;4216726;34;34096;-86
2021/05/07 02:27:05;;;;;;;6.70;3.20;;;;;;;9.47;63.21;98902.19;4219865;34;33782;-94
2021/05/07 02:29:38;;;;;;;8.68;2.92;;;;;;;9.78;62.29;98887.38;4217684;34;34447;-87
2021/05/07 02:32:11;;;;;;;6.72;2.95;;;;;;;9.95;61.67;98890.53;4206164;34;33205;-86
2021/05/07 02:34:43;;;;;;;10.02;4.35;;;;;;;10.21;61.11;98899.72;4219300;33;34408;-93
2021/05/07 02:37:38;;;;;;;6.12;3.17;;;;;;;10.21;61.36;98900.56;4185183;34;35741;-94
2021/05/07 02:40:12;;;;;;;5.35;2.75;;;;;;;10.03;61.45;98889.50;4195197;34;34199;-86
2021/05/07 02:42:44;;;;;;;5.00;3.10;;;;;;;9.98;61.51;98897.41;4218350;34;34260;-94
2021/05/07 02:45:18;;;;;;;4.95;2.67;;;;;;;9.75;62.49;98901.28;4206767;34;34171;-94
2021/05/07 02:47:51;;;;;;;6.10;3.37;;;;;;;9.93;62.20;98899.88;4205952;34;34255;-94
2021/05/07 02:50:24;;;;;;;3.92;2.53;;;;;;;9.70;62.60;98901.88;4217984;33;34160;-86
2021/05/07 02:52:57;;;;;;;11.73;3.30;;;;;;;9.86;62.24;98899.84;4219850;34;33227;-96
2021/05/07 02:55:31;;;;;;;6.87;3.08;;;;;;;9.49;63.56;98896.59;4206701;34;33947;-94
2021/05/07 02:58:05;;;;;;;6.28;2.75;;;;;;;9.82;62.65;98901.28;4217712;34;34282;-95
2021/05/07 03:00:38;;;;;;;7.12;2.72;;;;;;;9.39;63.98;98893.47;4206301;34;34260;-86
2021/05/07 03:03:21;;;;;;;3.83;2.40;;;;;;;9.80;62.58;98884.47;4218077;34;33510;-94
2021/05/07 03:05:55;;;;;;;7.22;2.72;;;;;;;9.75;62.42;98877.00;4217779;34;34077;-96
2021/05/07 03:08:27;;;;;;;5.40;2.78;;;;;;;9.53;63.09;98871.72;4206188;34;33999;-87
2021/05/07 03:11:00;;;;;;;7.12;2.85;;;;;;;9.33;64.11;98866.25;4219768;34;33228;-87
2021/05/07 03:13:32;;;;;;;5.45;2.45;;;;;;;9.79;62.87;98870.16;4218452;34;35219;-93
2021/05/07 03:16:06;;;;;;;4.75;2.40;;;;;;;9.94;62.22;98863.75;4218159;34;34604;-95
2021/05/07 03:18:39;;;;;;;7.00;3.03;;;;;;;9.93;62.30;98879.09;4216857;34;35385;-95
2021/05/07 03:21:12;;;;;;;7.62;2.78;;;;;;;9.81;62.80;98862.69;4217120;34;35046;-96
2021/05/07 03:23:44;;;;;;;5.40;2.83;;;;;;;9.78;62.98;98862.28;4205917;34;34738;-95
2021/05/07 03:26:18;;;;;;;4.97;3.17;;;;;;;9.88;62.93;98860.00;4217845;34;34632;-86
2021/05/07 03:28:51;;;;;;;7.60;3.67;;;;;;;10.00;62.59;98865.63;4218811;34;33673;-95
2021/05/07 03:31:35;;;;;;;5.43;3.00;;;;;;;9.61;63.68;98857.25;4216102;34;35178;-86
2021/05/07 03:34:07;;;;;;;14.55;2.97;;;;;;;9.61;64.01;98859.94;4205160;34;33727;-86
2021/05/07 03:36:40;;;;;;;9.35;4.18;;;;;;;9.38;64.74;98864.81;4219041;34;34659;-86
2021/05/07 03:39:12;;;;;;;7.22;3.70;;;;;;;9.54;64.02;98861.78;4215399;34;34827;-86
2021/05/07 03:41:48;;;;;;;8.00;2.87;;;;;;;9.59;64.47;98864.69;4219232;34;33777;-86
2021/05/07 03:44:20;;;;;;;11.32;4.18;;;;;;;9.95;63.92;98858.13;4214771;34;34128;-95
2021/05/07 03:46:57;;;;;;;10.23;3.17;;;;;;;10.03;63.55;98855.25;4203211;34;33748;-87
2021/05/07 03:49:30;;;;;;;8.57;2.92;;;;;;;10.26;63.19;98862.12;4204817;34;35669;-94
2021/05/07 03:52:04;;;;;;;7.22;3.50;;;;;;;10.31;62.43;98870.44;4204116;34;33987;-86
2021/05/07 03:54:36;;;;;;;8.38;3.12;;;;;;;10.16;63.00;98861.69;4216215;34;33340;-86
2021/05/07 03:57:09;;;;;;;8.43;3.25;;;;;;;10.33;62.72;98870.22;4215246;34;33508;-94
2021/05/07 03:59:41;;;;;;;6.68;3.75;;;;;;;10.27;63.38;98876.44;4205439;34;34852;-87
2021/05/07 04:02:14;;;;;;;7.10;3.42;;;;;;;10.23;62.87;98873.34;4215686;34;33663;-95
2021/05/07 04:04:47;;;;;;;5.12;2.92;;;;;;;10.31;62.92;98883.13;4192390;34;33639;-87
2021/05/07 04:07:21;;;;;;;6.00;2.80;;;;;;;10.44;63.45;98893.13;4216532;34;33582;-86
2021/05/07 04:10:16;;;;;;;5.78;3.08;;;;;;;10.84;62.78;98895.81;4217960;34;33773;-87
2021/05/07 04:15:22;;;;;;;5.20;3.12;;;;;;;11.10;62.59;98912.00;4215245;34;33622;-86
2021/05/07 04:17:54;;;;;;;6.85;2.87;;;;;;;11.06;63.34;98905.34;4215405;34;35774;-94
2021/05/07 04:20:27;;;;;;;6.25;3.10;;;;;;;10.91;64.49;98902.03;4192834;34;34213;-87
2021/05/07 04:23:01;;;;;;;5.82;3.15;;;;;;;11.25;63.61;98908.22;4218632;34;33884;-96
2021/05/07 04:25:34;;;;;;;7.37;3.45;;;;;;;11.49;62.76;98910.22;4204375;34;33857;-85
2021/05/07 04:28:07;;;;;;;8.07;3.72;;;;;;;11.76;62.00;98918.22;4193893;34;35103;-96
2021/05/07 04:30:55;;;;;;;7.43;3.83;;;;;;;11.74;62.80;98920.34;4207886;34;34888;-96
2021/05/07 04:33:28;;;;;;;4.53;3.05;;;;;;;11.55;63.74;98923.94;4181145;34;34540;-96
2021/05/07 04:36:01;;;;;;;8.45;3.30;;;;;;;11.73;63.93;98931.38;4192470;34;33386;-96
2021/05/07 04:38:36;;;;;;;12.18;3.25;;;;;;;11.83;64.83;98932.56;4192815;34;35172;-86
2021/05/07 04:41:09;;;;;;;5.22;2.62;;;;;;;11.87;64.88;98926.72;4204814;34;33801;-86
2021/05/07 04:43:41;;;;;;;8.85;3.78;;;;;;;12.07;64.53;98927.50;4203261;34;34299;-87
2021/05/07 04:46:15;;;;;;;5.60;3.30;;;;;;;12.02;65.56;98946.28;4204771;34;33186;-95
2021/05/07 04:48:47;;;;;;;7.53;3.50;;;;;;;11.94;66.30;98949.22;4200985;34;34378;-96
2021/05/07 04:51:21;;;;;;;8.13;4.43;;;;;;;12.12;66.20;98957.44;4200613;34;34335;-95
2021/05/07 04:53:59;;;;;;;9.77;3.92;;;;;;;11.91;66.60;98957.75;4192459;34;34208;-87
2021/05/07 04:56:32;;;;;;;7.10;3.22;;;;;;;12.13;66.75;98958.31;4193910;34;32736;-87
2021/05/07 04:59:26;;;;;;;7.43;5.35;;;;;;;12.04;67.33;98955.00;4193084;34;33788;-95
2021/05/07 05:02:00;;;;;;;11.50;7.68;;;;;;;12.27;67.05;98948.22;4182385;34;273654;-96
2021/05/07 05:04:33;;;;;;;11.38;7.12;;;;;;;12.45;66.48;98953.72;4189657;34;34391;-96
2021/05/07 05:07:08;;;;;;;18.23;11.82;;;;;;;12.42;67.39;98950.63;4191648;34;34444;-96
2021/05/07 05:09:41;;;;;;;14.23;9.95;;;;;;;12.58;67.43;98957.41;4202350;34;35394;-88
2021/05/07 05:12:14;;;;;;;15.57;7.20;;;;;;;12.49;68.17;98960.38;4193145;34;33940;-95
2021/05/07 05:14:47;;;;;;;8.98;6.15;;;;;;;12.76;67.42;98962.88;4183437;34;34622;-96
2021/05/07 05:17:21;;;;;;;8.73;5.30;;;;;;;12.59;67.38;98962.59;4199923;34;34063;-96
2021/05/07 05:19:53;;;;;;;7.90;5.12;;;;;;;12.86;66.84;98963.22;4191876;34;33761;-87
2021/05/07 05:22:25;;;;;;;11.80;4.93;;;;;;;12.66;67.17;98962.53;4202842;34;34869;-87
2021/05/07 05:25:03;;;;;;;6.12;4.25;;;;;;;12.88;66.84;98952.97;4191648;34;34037;-96
2021/05/07 05:27:38;;;;;;;8.32;5.28;;;;;;;12.63;66.99;98955.66;4179735;34;34857;-89
2021/05/07 05:30:11;;;;;;;8.52;5.22;;;;;;;12.70;67.60;98958.34;4204377;34;33714;-96
2021/05/07 05:32:44;;;;;;;9.55;4.75;;;;;;;12.83;67.60;98957.37;4191422;34;34423;-96
2021/05/07 05:35:17;;;;;;;8.48;5.57;;;;;;;13.24;65.81;98959.53;4185279;34;34043;-96
2021/05/07 05:38:13;;;;;;;8.52;5.55;;;;;;;13.34;65.89;98963.66;4208720;28;34796;-87
2021/05/07 05:40:44;;;;;;;12.27;5.93;;;;;;;12.71;68.69;98957.31;4225904;33;33691;-87
2021/05/07 05:43:17;;;;;;;9.95;5.57;;;;;;;12.71;68.80;98950.00;4243976;33;34745;-91
2021/05/07 05:45:50;;;;;;;10.77;6.20;;;;;;;13.12;66.67;98955.91;4212037;33;34374;-87
2021/05/07 05:48:23;;;;;;;9.00;5.78;;;;;;;12.81;68.16;98960.31;4240705;33;34178;-87
2021/05/07 05:50:59;;;;;;;9.10;4.85;;;;;;;13.38;66.51;98971.13;4243219;33;34785;-85
2021/05/07 05:53:33;;;;;;;14.80;5.50;;;;;;;13.21;66.39;98965.41;4238590;33;35500;-87
2021/05/07 05:56:05;;;;;;;7.97;5.95;;;;;;;13.04;67.33;98969.75;4226894;33;34533;-87
2021/05/07 05:58:38;;;;;;;8.48;5.07;;;;;;;13.21;67.35;98965.41;4229587;33;33889;-87
2021/05/07 06:01:11;;;;;;;10.57;6.03;;;;;;;12.92;68.95;98957.94;4254109;33;33693;-96
2021/05/07 06:03:56;;;;;;;11.05;6.03;;;;;;;13.21;68.05;98962.69;4190841;34;32539;-96
2021/05/07 06:06:29;;;;;;;15.10;5.95;;;;;;;13.50;67.66;98960.38;4189861;34;35303;-95
2021/05/07 06:09:27;;;;;;;15.95;6.43;;;;;;;13.03;69.69;98959.94;3741073;33;35167;-96
2021/05/07 06:12:01;;;;;;;19.77;9.50;;;;;;;12.67;71.80;98973.16;4210546;33;35283;-87
2021/05/07 06:14:34;;;;;;;17.87;9.10;;;;;;;12.79;71.59;98986.84;4213062;34;33541;-87
2021/05/07 06:17:07;;;;;;;15.00;8.77;;;;;;;13.20;70.55;98990.91;4212400;34;34990;-89
2021/05/07 06:19:39;;;;;;;21.77;10.05;;;;;;;13.33;70.61;99016.25;4215621;34;32792;-95
2021/05/07 06:22:12;;;;;;;12.15;7.32;;;;;;;13.52;69.88;99026.09;4211469;33;34261;-96
2021/05/07 06:24:57;;;;;;;10.90;5.90;;;;;;;13.17;69.45;99021.19;4185688;34;34126;-87
2021/05/07 06:27:30;;;;;;;13.52;5.80;;;;;;;13.22;69.23;99026.75;4208769;34;33680;-96
2021/05/07 06:30:42;;;;;;;12.82;6.72;;;;;;;12.97;70.93;99023.22;3949117;34;36675;-89
2021/05/07 06:33:14;;;;;;;16.17;7.25;;;;;;;13.10;72.29;99000.56;4212840;34;33701;-94
2021/05/07 06:35:48;;;;;;;9.05;4.90;;;;;;;13.77;69.75;99022.50;4211591;33;34384;-88
2021/05/07 06:38:20;;;;;;;13.52;5.95;;;;;;;13.45;70.12;99009.03;4213379;33;34334;-87
2021/05/07 06:40:53;;;;;;;14.32;6.07;;;;;;;13.59;68.82;99005.16;4214147;33;32964;-94
2021/05/07 06:43:25;;;;;;;14.27;6.20;;;;;;;13.78;69.17;99002.44;4199734;34;34419;-95
2021/05/07 06:45:58;;;;;;;11.60;5.68;;;;;;;14.19;68.35;99005.50;4199577;34;34225;-88
2021/05/07 06:48:31;;;;;;;10.20;4.70;;;;;;;14.22;67.41;98997.72;4202258;34;34243;-96
2021/05/07 06:51:18;;;;;;;12.05;5.35;;;;;;;14.20;64.64;98994.41;4180171;34;34740;-96
2021/05/07 06:53:53;;;;;;;11.50;6.03;;;;;;;14.53;65.55;98995.81;4212792;33;34096;-95
2021/05/07 06:56:27;;;;;;;16.37;6.85;;;;;;;14.71;65.16;98999.59;4212216;34;35260;-96
2021/05/07 06:58:59;;;;;;;12.15;6.95;;;;;;;14.11;67.01;99014.78;4222367;33;34865;-87
2021/05/07 07:01:35;;;;;;;11.48;6.70;;;;;;;14.48;66.76;99031.88;4211972;34;34916;-96
2021/05/07 07:04:10;;;;;;;14.30;6.85;;;;;;;14.43;66.19;99026.31;4216028;34;33825;-96
2021/05/07 07:07:00;;;;;;;13.55;6.32;;;;;;;14.49;67.50;99019.13;4186301;34;35690;-96
2021/05/07 07:09:32;;;;;;;14.25;5.32;;;;;;;14.84;67.58;99021.12;4218148;34;34306;-96
2021/05/07 07:12:18;;;;;;;12.35;5.95;;;;;;;14.92;65.38;99023.50;4187862;34;34586;-87
2021/05/07 07:14:51;;;;;;;12.43;6.32;;;;;;;14.85;64.57;99020.09;4217380;34;33345;-87
2021/05/07 07:17:24;;;;;;;9.93;6.00;;;;;;;14.65;65.13;99018.50;4206459;34;33526;-86
2021/05/07 07:19:56;;;;;;;11.10;5.65;;;;;;;14.79;64.34;99018.28;4218722;34;34228;-94
2021/05/07 07:22:30;;;;;;;8.88;4.93;;;;;;;14.99;64.38;99016.06;4205866;34;34154;-86
2021/05/07 07:25:03;;;;;;;11.20;5.62;;;;;;;15.00;64.92;99023.19;4218448;34;35483;-87
2021/05/07 07:27:36;;;;;;;15.48;5.80;;;;;;;14.95;64.58;99025.75;4208596;34;33706;-96
2021/05/07 07:30:09;;;;;;;8.77;5.82;;;;;;;15.21;63.89;99036.47;4198980;34;33809;-86
2021/05/07 07:32:42;;;;;;;9.82;5.20;;;;;;;15.22;64.34;99038.94;4203152;34;32866;-96
2021/05/07 07:35:16;;;;;;;10.75;5.95;;;;;;;15.27;64.35;99030.91;4189977;34;34982;-86
2021/05/07 07:37:49;;;;;;;13.62;5.80;;;;;;;15.50;64.95;99034.72;4211279;34;33303;-96
2021/05/07 07:40:25;;;;;;;11.82;6.03;;;;;;;15.54;64.35;99033.19;4205870;34;34425;-96
2021/05/07 07:43:00;;;;;;;11.60;5.55;;;;;;;16.10;63.31;99046.41;4209112;34;31923;-86
2021/05/07 07:45:32;;;;;;;10.20;5.90;;;;;;;16.12;63.29;99045.06;4217286;34;34400;-86
2021/05/07 07:48:05;;;;;;;12.88;6.18;;;;;;;16.25;62.50;99041.25;4205313;34;34589;-86
2021/05/07 07:50:38;;;;;;;9.82;4.30;;;;;;;16.58;60.98;99040.53;4207858;34;33808;-96
2021/05/07 07:53:27;;;;;;;;;;;;;;;16.58;59.92;99039.72;4181462;28;35466;-86
2021/05/07 07:56:00;;;;;;;7.75;5.25;;;;;;;16.30;59.95;99033.19;4188890;34;34671;-96
2021/05/07 07:58:33;;;;;;;5.47;3.80;;;;;;;15.61;62.86;99033.87;4177974;34;34002;-87
2021/05/07 08:01:08;;;;;;;6.55;4.30;;;;;;;15.89;62.13;99043.25;4200004;34;33738;-86
2021/05/07 08:03:41;;;;;;;9.95;4.82;;;;;;;15.71;61.07;99044.19;4191495;34;34249;-88
2021/05/07 08:06:13;;;;;;;7.28;4.85;;;;;;;16.18;59.47;99048.75;4201443;34;34222;-86
2021/05/07 08:08:46;;;;;;;9.40;5.37;;;;;;;15.94;60.19;99045.25;4176418;34;32025;-87
2021/05/07 08:11:18;;;;;;;8.13;4.07;;;;;;;16.34;61.58;99044.44;4190119;34;35218;-93
2021/05/07 08:13:52;;;;;;;7.97;3.78;;;;;;;16.50;59.74;99031.94;4188605;34;34897;-87
2021/05/07 08:16:25;;;;;;;9.52;4.72;;;;;;;16.54;58.28;99036.66;4198186;34;33248;-87
2021/05/07 08:18:59;;;;;;;6.55;4.32;;;;;;;17.01;57.05;99035.63;4197938;34;33613;-87
2021/05/07 08:21:32;;;;;;;6.53;4.12;;;;;;;17.08;56.70;99033.56;4187286;34;34377;-93
2021/05/07 08:24:06;;;;;;;5.57;3.70;;;;;;;16.90;58.24;99037.34;4186000;34;33641;-87
2021/05/07 08:26:39;;;;;;;6.18;4.50;;;;;;;16.81;59.05;99037.94;4188327;34;33743;-89
2021/05/07 08:29:11;;;;;;;9.23;4.28;;;;;;;17.12;58.79;99029.25;4187806;34;34192;-88
2021/05/07 08:31:45;;;;;;;4.70;3.50;;;;;;;17.17;58.22;99030.41;4198545;34;34576;-90
2021/05/07 08:34:20;;;;;;;5.62;3.25;;;;;;;17.35;54.83;99038.38;4198650;34;33073;-86
2021/05/07 08:36:53;;;;;;;5.85;3.35;;;;;;;17.33;55.58;99039.69;4203085;34;33823;-86
2021/05/07 08:39:26;;;;;;;6.22;3.92;;;;;;;17.40;56.79;99035.69;4185703;34;34676;-93
2021/05/07 08:42:06;;;;;;;7.85;3.62;;;;;;;17.35;57.43;99038.38;4181738;34;34426;-87
2021/05/07 08:44:39;;;;;;;7.00;3.08;;;;;;;17.83;56.85;99036.88;4189965;34;33374;-86
2021/05/07 08:47:16;;;;;;;4.62;3.35;;;;;;;17.58;54.57;99036.53;4176753;34;34819;-86
2021/05/07 08:49:52;;;;;;;4.95;3.12;;;;;;;17.41;55.05;99042.81;4188144;34;34776;-94
2021/05/07 08:52:26;;;;;;;6.85;3.97;;;;;;;17.39;55.12;99033.22;4193103;34;35031;-86
2021/05/07 08:54:58;;;;;;;7.68;3.47;;;;;;;17.41;56.01;99042.81;4204137;34;33137;-86
2021/05/07 08:57:32;;;;;;;7.62;3.75;;;;;;;16.48;57.30;99043.09;4202686;34;34028;-86
2021/05/07 09:00:08;;;;;;;6.90;3.83;;;;;;;16.14;59.23;99045.69;4201820;34;33662;-87
2021/05/07 09:02:40;;;;;;;6.40;4.65;;;;;;;16.20;59.21;99049.34;4190961;34;34713;-87
2021/05/07 09:05:13;;;;;;;6.82;4.12;;;;;;;15.94;60.21;99050.69;4214689;34;32576;-95
2021/05/07 09:07:53;;;;;;;9.82;4.75;;;;;;;15.54;61.49;99044.06;4202187;34;34527;-86
2021/05/07 09:10:39;;;;;;;7.28;4.72;;;;;;;15.45;62.16;99059.94;4213246;34;33370;-86
2021/05/07 09:13:19;;;;;;;8.30;5.62;;;;;;;15.73;63.07;99058.38;4202542;34;34908;-94
2021/05/07 09:15:53;;;;;;;8.13;5.62;;;;;;;15.29;63.82;99058.72;4198108;34;34204;-89
2021/05/07 09:18:25;;;;;;;8.93;5.18;;;;;;;15.29;65.30;99068.78;4209613;34;34612;-94
2021/05/07 09:21:03;;;;;;;14.05;5.70;;;;;;;15.23;64.09;99065.09;4194423;34;34294;-96
2021/05/07 09:23:40;;;;;;;15.60;6.47;;;;;;;14.60;66.77;99061.00;4204967;33;34090;-94
2021/05/07 09:26:14;;;;;;;14.07;6.20;;;;;;;14.71;67.45;99056.69;4203673;34;34084;-92
2021/05/07 09:28:55;;;;;;;11.52;6.87;;;;;;;14.27;69.47;99065.81;4203753;34;33304;-91
2021/05/07 09:31:29;;;;;;;8.25;6.43;;;;;;;14.61;68.67;99074.41;4226893;33;34059;-93
2021/05/07 09:34:04;;;;;;;11.50;7.65;;;;;;;15.29;67.18;99072.34;4215747;33;34812;-93
2021/05/07 09:36:38;;;;;;;11.57;7.65;;;;;;;14.58;69.59;99072.13;4213741;34;33424;-88
2021/05/07 09:39:14;;;;;;;11.68;6.65;;;;;;;14.82;69.80;99066.81;4202558;34;34550;-94
2021/05/07 09:41:51;;;;;;;9.35;6.37;;;;;;;15.18;68.57;99073.16;4186312;34;33682;-87
2021/05/07 09:44:25;;;;;;;11.10;7.18;;;;;;;15.35;67.53;99055.06;4201346;34;34540;-87
2021/05/07 09:46:58;;;;;;;8.45;6.35;;;;;;;15.59;67.80;99044.19;4213311;34;33262;-88
2021/05/07 09:49:32;;;;;;;9.80;7.37;;;;;;;15.65;67.20;99036.97;4203117;34;33101;-87
2021/05/07 09:52:09;;;;;;;9.50;7.32;;;;;;;15.17;68.50;99036.09;4189353;34;34041;-95
2021/05/07 09:54:49;;;;;;;11.35;7.65;;;;;;;14.83;69.93;99022.19;4202185;34;34786;-91
2021/05/07 09:57:57;;;;;;;10.45;6.97;;;;;;;15.24;69.62;99012.34;4133774;28;34709;-92
2021/05/07 10:00:31;;;;;;;14.07;6.70;;;;;;;14.54;72.07;99027.41;4217842;33;34521;-92
2021/05/07 10:03:07;;;;;;;11.35;6.85;;;;;;;14.53;72.42;99025.72;4245736;33;34684;-91
2021/05/07 10:05:40;;;;;;;9.88;7.00;;;;;;;14.32;73.55;99023.53;4232332;33;34699;-95
2021/05/07 10:08:16;;;;;;;8.00;5.57;;;;;;;14.64;71.70;99026.84;4220181;33;34259;-91
2021/05/07 10:10:49;;;;;;;9.48;5.97;;;;;;;14.51;70.74;99033.31;4231693;33;34489;-93
2021/05/07 10:13:28;;;;;;;8.48;5.10;;;;;;;14.96;70.51;99030.16;4233500;33;34287;-93
2021/05/07 10:16:03;;;;;;;5.82;4.05;;;;;;;15.12;70.12;99038.69;4233162;33;33664;-92
2021/05/07 10:18:38;;;;;;;7.18;4.65;;;;;;;15.01;65.73;99040.34;4237186;33;33156;-90
2021/05/07 10:21:14;;;;;;;5.43;4.18;;;;;;;14.78;69.57;99055.53;4219238;33;35041;-94
2021/05/07 10:23:51;;;;;;;6.70;4.50;;;;;;;15.18;66.80;99054.94;4224782;33;34646;-87
2021/05/07 10:26:40;;;;;;;7.72;4.82;;;;;;;15.22;67.72;99047.09;4242403;33;34482;-94
2021/05/07 10:29:24;;;;;;;9.55;4.72;;;;;;;14.63;70.56;99045.06;4243360;33;34109;-89
2021/05/07 10:31:59;;;;;;;5.57;3.80;;;;;;;15.34;68.75;99052.56;4239391;33;34840;-90
2021/05/07 10:34:41;;;;;;;6.10;3.67;;;;;;;15.68;66.17;99048.19;4232136;33;33744;-93
2021/05/07 10:37:14;;;;;;;7.75;4.15;;;;;;;15.32;67.56;99038.38;4225297;33;33479;-88
2021/05/07 10:39:54;;;;;;;5.55;3.58;;;;;;;15.49;67.57;99046.66;4234239;33;33294;-88
2021/05/07 10:42:27;;;;;;;4.35;3.05;;;;;;;15.62;67.16;99051.06;4220565;33;33571;-88
2021/05/07 10:45:01;;;;;;;11.12;3.45;;;;;;;15.02;67.78;99066.50;4215832;33;35125;-87
2021/05/07 10:47:37;;;;;;;4.78;3.72;;;;;;;14.38;70.27;99071.53;4218045;33;35229;-90
2021/05/07 10:50:14;;;;;;;5.45;3.75;;;;;;;14.09;72.12;99076.69;4243477;33;33842;-87
2021/05/07 10:52:47;;;;;;;6.75;4.70;;;;;;;14.79;70.59;99070.81;4227731;33;34337;-95
2021/05/07 10:55:20;;;;;;;10.88;4.37;;;;;;;14.30;71.77;99070.78;4230762;33;35616;-94
2021/05/07 10:58:04;;;;;;;11.30;4.35;;;;;;;14.22;72.72;99089.28;4327196;28;34705;-91
2021/05/07 11:00:39;;;;;;;6.75;4.47;;;;;;;13.65;74.93;99084.03;4238272;33;34099;-96
2021/05/07 11:03:30;;;;;;;13.23;4.80;;;;;;;13.91;74.89;99099.25;4211981;33;33466;-96
2021/05/07 11:06:03;;;;;;;7.62;5.03;;;;;;;13.72;75.87;99109.25;4269954;28;34308;-96
2021/05/07 11:09:24;;;;;;;10.27;4.65;;;;;;;13.21;77.97;99122.78;4218723;33;35611;-96
2021/05/07 11:12:03;;;;;;;9.88;5.30;;;;;;;13.21;78.64;99119.25;4254500;33;32626;-86
2021/05/07 11:14:38;;;;;;;6.40;3.70;;;;;;;13.59;77.59;99113.75;4244520;33;35832;-94
2021/05/07 11:17:18;;;;;;;7.62;4.43;;;;;;;13.35;77.82;99106.44;4231996;33;34785;-85
2021/05/07 11:19:51;;;;;;;7.15;5.15;;;;;;;13.57;78.34;99104.16;4232670;33;34580;-89
2021/05/07 11:22:25;;;;;;;13.98;6.00;;;;;;;13.16;79.77;99084.63;4244413;33;33960;-87
2021/05/07 11:24:57;;;;;;;8.80;5.12;;;;;;;13.54;79.39;99072.84;4231302;33;33643;-86
2021/05/07 11:27:31;;;;;;;10.85;4.53;;;;;;;13.55;79.34;99090.00;4243747;33;33973;-86
2021/05/07 11:30:12;;;;;;;10.05;3.95;;;;;;;13.84;78.39;99102.03;4246067;33;34140;-93
2021/05/07 11:32:45;;;;;;;7.68;4.65;;;;;;;13.36;77.04;99099.97;4245492;33;34140;-86
2021/05/07 11:35:17;;;;;;;7.03;2.75;;;;;;;13.14;77.54;99083.19;4245784;33;34412;-87
2021/05/07 11:37:54;;;;;;;5.60;2.75;;;;;;;13.43;75.25;99068.16;4242305;33;33907;-86
2021/05/07 11:40:39;;;;;;;5.60;2.40;;;;;;;13.36;76.09;99073.63;4226655;33;35318;-85
2021/05/07 11:43:13;;;;;;;6.80;2.72;;;;;;;13.05;77.44;99071.75;4234016;33;33172;-93
2021/05/07 11:45:46;;;;;;;7.85;2.60;;;;;;;13.01;77.46;99089.56;4230080;33;35098;-87
2021/05/07 11:48:19;;;;;;;6.78;2.80;;;;;;;12.91;77.34;99089.19;4256158;33;34529;-92
2021/05/07 11:50:51;;;;;;;10.00;2.92;;;;;;;12.75;78.91;99083.22;4243336;33;33411;-86
2021/05/07 11:53:29;;;;;;;8.07;3.08;;;;;;;13.12;77.53;99072.56;4255542;33;32979;-86
2021/05/07 11:56:03;;;;;;;6.97;2.90;;;;;;;13.28;77.03;99073.03;4262388;33;33624;-87
2021/05/07 11:58:37;;;;;;;6.45;3.45;;;;;;;12.66;78.34;99079.09;4245190;33;33664;-84
2021/05/07 12:01:13;;;;;;;5.60;3.58;;;;;;;12.73;78.55;99082.62;4255689;33;33882;-89
2021/05/07 12:03:48;;;;;;;10.13;3.42;;;;;;;12.47;80.67;99062.75;4243943;33;32715;-93
2021/05/07 12:06:25;;;;;;;5.45;3.35;;;;;;;12.84;79.37;99068.38;4246180;33;33674;-86
2021/05/07 12:09:09;;;;;;;7.43;4.53;;;;;;;13.02;78.82;99058.66;4230165;33;34270;-86
2021/05/07 12:11:41;;;;;;;7.70;4.45;;;;;;;13.11;79.05;99051.06;4232345;33;34541;-87